VA02 weather

Pace Airport
Ridgeway, Virginia, United States

Public forecast

Using degrees Fahrenheit for public forecast. Weather courtesy of forecast.io.

METAR (pilot weather report)

Closest report is Blue Ridge Airport, 6.6 nm (12.2 km) WNW. Retrieved 2019/09/23 14:39 UTC (7 minutes ago):

KMTV 231439Z AUTO 00000KT 10SM CLR 27/18 A3010 RMK AO2

TAF (pilot weather forecast)

Closest forecast is Danville Regional Airport, 26.9 nm (49.8 km) E. Retrieved 2019/09/23 12:22 UTC (2 hours ago):

TAF KDAN 231120Z 2312/2412 20004KT P6SM FEW250 FM231700 24007KT P6SM FEW250 FM240300 28005KT P6SM BKN080